Pagrindinis puslapis
METAR-TAF:

METAR-TAF

Oro uostai :

Abakanas, Rusija

platuma: 53-45N, ilguma: 091-24E, Aukštis: 245 m

Dabartinis oras

Ataskaita buvo paskelbta 43 minutes, ne 14:30 UTC
Vėjas 6 kt iš Vakarų/Šiaurės Vakarų
Temperatūra 11°C
Drėgmė 76%
Slėgis 1004 hPa
Matomumas 10 km arba daugiau
nėra debesų žemiau 1500 m ir nėra kamuolinių lietaus debesų

METAR: UNAA 051430Z 30003MPS CAVOK 11/07 Q1004 R02/190060 NOSIG RMK QFE730

Laikas: 22:13 (15:13 UTC)

Prognozė

Ataskaita buvo paskelbta 1 valandą ir 22 minutes, ne 13:51 UTC
Prognozė galioja nuo 05 metu 15 UTC su 06 metu 15 UTC
Vėjas 16 kt iš Vakarų/Šiaurės Vakarų su gūsio iki 27 kt
Matomumas: 6000 m
Su prošvaistėmis ne aukštis 1600 ft, Liūtiniai kamuoliniai debesys.
lietus
Laikinai
nuo 05 metu 15 UTC su 06 metu 03 UTC
Vėjas 6 kt iš Šiaurės Vakarų su gūsio iki 19 kt
Matomumas: 3200 m
lietus

TAF: UNAA 051351Z 0515/0615 29008G14MPS 6000 -SHRA BKN016CB TEMPO 0515/0603 31003G10MPS 3200 -SHRA

Orai ataskaitas ir orų prognozės (METAR, TAF).

turimą stotys yra geltonos ir raudonos taškus žemėlapyje.

Perkelti pele per norėdami pamatyti stoties vardą.

Tada spustelėkite, norėdami matyti oro stebėjimo ir prognozės.

Norėdami pakeisti žemėlapį: spustelėkite ant žalios mygtukų su juodo kryžiaus žemyn,; žalią mygtuką su brūkšneliu, jei norite nutolinti; arba žalių rodyklių gretimoms žemėlapius.


METAR-TAF: